Time;durP1;ratioP1;P1;durP2;ratioP2;P2;SDS_P1;SDS_P2;PMS_P1;PMS_P2;Temp;Humidity;BMP_temperature;BMP_pressure;BME280_temperature;BME280_humidity;BME280_pressure;Samples;Min_cycle;Max_cycle;Signal;HPM_P1;HPM_P2
2022/10/25 00:00:49;;;;;;;;;;;23.10;45.70;;;;;;474934;251;1219;-53
2022/10/25 00:02:50;;;;;;;;;;;23.10;45.70;;;;;;474872;251;1276;-53
2022/10/25 00:04:51;;;;;;;;;;;23.10;45.80;;;;;;475023;251;1205;-53
2022/10/25 00:06:53;;;;;;;;;;;23.20;45.80;;;;;;474628;251;1902;-53
2022/10/25 00:08:54;;;;;;;;;;;23.10;45.80;;;;;;474626;251;1258;-53
2022/10/25 00:10:55;;;;;;;;;;;23.10;45.80;;;;;;474633;251;2200;-53
2022/10/25 00:12:57;;;;;;;;;;;23.10;45.80;;;;;;474919;251;1174;-53
2022/10/25 00:14:58;;;;;;;;;;;23.10;45.90;;;;;;474642;251;1227;-53
2022/10/25 00:16:59;;;;;;;;;;;23.10;45.80;;;;;;475085;251;1243;-53
2022/10/25 00:19:01;;;;;;;;;;;23.10;45.90;;;;;;474668;251;1324;-53
2022/10/25 00:21:02;;;;;;;;;;;23.10;45.80;;;;;;475109;251;1060;-53
2022/10/25 00:23:03;;;;;;;;;;;23.10;45.80;;;;;;474636;251;1252;-53
2022/10/25 00:25:04;;;;;;;;;;;23.10;45.80;;;;;;474854;251;1108;-53
2022/10/25 00:27:06;;;;;;;;;;;23.10;45.90;;;;;;474672;251;1179;-53
2022/10/25 00:29:07;;;;;;;;;;;23.10;45.80;;;;;;474681;251;1101;-53
2022/10/25 00:31:08;;;;;;;;;;;23.10;45.90;;;;;;475072;251;2157;-53
2022/10/25 00:33:10;;;;;;;;;;;23.10;45.90;;;;;;474661;251;1252;-53
2022/10/25 00:35:11;;;;;;;;;;;23.10;45.90;;;;;;475114;251;1196;-53
2022/10/25 00:37:12;;;;;;;;;;;23.10;45.90;;;;;;474860;251;1134;-53
2022/10/25 00:39:14;;;;;;;;;;;23.10;45.90;;;;;;474654;251;1169;-53
2022/10/25 00:41:15;;;;;;;;;;;23.10;45.90;;;;;;474661;251;1208;-53
2022/10/25 00:43:16;;;;;;;;;;;23.10;45.90;;;;;;475019;251;1554;-53
2022/10/25 00:45:18;;;;;;;;;;;23.10;45.90;;;;;;474662;251;1199;-53
2022/10/25 00:47:19;;;;;;;;;;;23.10;46.00;;;;;;474855;251;1267;-53
2022/10/25 00:49:20;;;;;;;;;;;23.10;46.00;;;;;;474608;251;1249;-53
2022/10/25 00:51:22;;;;;;;;;;;23.10;46.00;;;;;;474877;251;2169;-53
2022/10/25 00:53:23;;;;;;;;;;;23.10;46.10;;;;;;474597;251;1255;-53
2022/10/25 00:55:24;;;;;;;;;;;23.10;46.00;;;;;;475006;251;1232;-53
2022/10/25 00:57:26;;;;;;;;;;;23.10;46.00;;;;;;474609;251;1223;-53
2022/10/25 00:59:27;;;;;;;;;;;23.10;46.00;;;;;;474818;251;1207;-53
2022/10/25 01:01:28;;;;;;;;;;;23.10;46.00;;;;;;474586;251;1237;-53
2022/10/25 01:03:30;;;;;;;;;;;23.10;46.00;;;;;;474601;251;1197;-53
2022/10/25 01:05:31;;;;;;;;;;;23.10;46.00;;;;;;474796;251;1194;-53
2022/10/25 01:07:32;;;;;;;;;;;23.10;46.00;;;;;;474559;251;1219;-53
2022/10/25 01:09:34;;;;;;;;;;;23.10;46.00;;;;;;474615;251;1389;-53
2022/10/25 01:11:36;;;;;;;;;;;23.10;46.00;;;;;;474558;251;2174;-53
2022/10/25 01:13:36;;;;;;;;;;;23.10;46.10;;;;;;474516;251;2455;-53
2022/10/25 01:15:38;;;;;;;;;;;23.10;46.10;;;;;;474597;251;1351;-53
2022/10/25 01:17:39;;;;;;;;;;;23.10;46.10;;;;;;474932;251;1299;-53
2022/10/25 01:19:41;;;;;;;;;;;23.10;46.10;;;;;;475014;251;1242;-52
2022/10/25 01:21:42;;;;;;;;;;;23.10;46.10;;;;;;474993;251;1463;-53
2022/10/25 01:23:43;;;;;;;;;;;23.10;46.00;;;;;;474931;251;1207;-53
2022/10/25 01:25:44;;;;;;;;;;;23.10;46.10;;;;;;474724;251;1834;-53
2022/10/25 01:27:45;;;;;;;;;;;23.10;46.10;;;;;;474571;251;1316;-53
2022/10/25 01:29:47;;;;;;;;;;;23.10;46.00;;;;;;474965;251;1186;-52
2022/10/25 01:31:48;;;;;;;;;;;23.10;46.10;;;;;;475029;251;2150;-53
2022/10/25 01:33:49;;;;;;;;;;;23.10;46.10;;;;;;474872;251;1286;-53
2022/10/25 01:35:51;;;;;;;;;;;23.10;46.10;;;;;;475047;251;1433;-53
2022/10/25 01:37:52;;;;;;;;;;;23.10;46.10;;;;;;475007;251;1308;-53
2022/10/25 01:39:53;;;;;;;;;;;23.10;46.10;;;;;;475072;251;1283;-53
2022/10/25 01:41:55;;;;;;;;;;;23.10;46.10;;;;;;474748;251;1296;-53
2022/10/25 01:43:56;;;;;;;;;;;23.10;46.10;;;;;;475015;251;1172;-53
2022/10/25 01:45:57;;;;;;;;;;;23.10;46.20;;;;;;474937;251;1215;-53
2022/10/25 01:47:59;;;;;;;;;;;23.10;46.10;;;;;;475094;251;1222;-53
2022/10/25 01:50:01;;;;;;;;;;;23.10;46.10;;;;;;475066;251;1209;-53
2022/10/25 01:52:02;;;;;;;;;;;23.10;46.20;;;;;;474612;251;2205;-52
2022/10/25 01:54:03;;;;;;;;;;;23.10;46.20;;;;;;475070;251;1350;-53
2022/10/25 01:56:05;;;;;;;;;;;23.10;46.20;;;;;;474809;251;1322;-53
2022/10/25 01:58:06;;;;;;;;;;;23.10;46.20;;;;;;474808;251;1169;-53
2022/10/25 02:00:07;;;;;;;;;;;23.10;46.30;;;;;;474649;251;1290;-53
2022/10/25 02:02:08;;;;;;;;;;;23.10;46.20;;;;;;474613;251;1216;-53
2022/10/25 02:04:10;;;;;;;;;;;23.10;46.30;;;;;;474978;251;1253;-53
2022/10/25 02:06:11;;;;;;;;;;;23.10;46.30;;;;;;474606;251;1323;-53
2022/10/25 02:08:12;;;;;;;;;;;23.10;46.30;;;;;;474624;251;1696;-53
2022/10/25 02:10:14;;;;;;;;;;;23.10;46.20;;;;;;475051;251;1702;-53
2022/10/25 02:12:15;;;;;;;;;;;23.10;46.30;;;;;;474805;251;2217;-52
2022/10/25 02:14:16;;;;;;;;;;;23.10;46.30;;;;;;474608;251;1186;-53
2022/10/25 02:16:18;;;;;;;;;;;23.10;46.20;;;;;;475014;251;1386;-53
2022/10/25 02:18:19;;;;;;;;;;;23.10;46.20;;;;;;474608;251;1276;-53
2022/10/25 02:20:20;;;;;;;;;;;23.10;46.30;;;;;;474757;251;1223;-53
2022/10/25 02:22:22;;;;;;;;;;;23.10;46.30;;;;;;474600;251;1687;-52
2022/10/25 02:24:25;;;;;;;;;;;23.10;46.30;;;;;;474783;251;1311;-53
2022/10/25 02:26:24;;;;;;;;;;;23.10;46.30;;;;;;474892;251;2468;-53
2022/10/25 02:28:26;;;;;;;;;;;23.10;46.30;;;;;;474614;251;1344;-53
2022/10/25 02:30:27;;;;;;;;;;;23.10;46.30;;;;;;474773;251;1158;-52
2022/10/25 02:32:28;;;;;;;;;;;23.10;46.30;;;;;;474921;251;2161;-52
2022/10/25 02:34:30;;;;;;;;;;;23.10;46.30;;;;;;474913;251;1207;-53
2022/10/25 02:36:31;;;;;;;;;;;23.10;46.30;;;;;;474578;251;1186;-53
2022/10/25 02:38:32;;;;;;;;;;;23.10;46.30;;;;;;474751;251;1264;-53
2022/10/25 02:40:34;;;;;;;;;;;23.10;46.30;;;;;;475063;251;1330;-53
2022/10/25 02:42:35;;;;;;;;;;;23.10;46.30;;;;;;474621;251;1226;-53
2022/10/25 02:44:36;;;;;;;;;;;23.10;46.30;;;;;;474682;251;1222;-53
2022/10/25 02:46:37;;;;;;;;;;;23.10;46.30;;;;;;474746;251;1338;-53
2022/10/25 02:48:39;;;;;;;;;;;23.10;46.40;;;;;;474639;251;1203;-53
2022/10/25 02:50:40;;;;;;;;;;;23.10;46.40;;;;;;474924;251;1281;-53
2022/10/25 02:52:42;;;;;;;;;;;23.10;46.40;;;;;;474613;251;2196;-53
2022/10/25 02:54:43;;;;;;;;;;;23.10;46.40;;;;;;474993;251;1217;-53
2022/10/25 02:56:44;;;;;;;;;;;23.10;46.30;;;;;;475010;251;1211;-53
2022/10/25 02:58:45;;;;;;;;;;;23.10;46.30;;;;;;475056;251;1226;-53
2022/10/25 03:00:47;;;;;;;;;;;23.10;46.40;;;;;;475044;251;1250;-53
2022/10/25 03:02:48;;;;;;;;;;;23.10;46.40;;;;;;474871;251;1235;-53
2022/10/25 03:04:49;;;;;;;;;;;23.10;46.40;;;;;;474868;251;1368;-53
2022/10/25 03:06:51;;;;;;;;;;;23.10;46.40;;;;;;474617;251;1276;-53
2022/10/25 03:08:52;;;;;;;;;;;23.00;46.40;;;;;;475065;251;1336;-53
2022/10/25 03:10:53;;;;;;;;;;;23.10;46.40;;;;;;474862;251;1244;-53
2022/10/25 03:12:55;;;;;;;;;;;23.10;46.40;;;;;;474721;251;2213;-53
2022/10/25 03:14:56;;;;;;;;;;;23.10;46.40;;;;;;474676;251;1211;-53
2022/10/25 03:16:57;;;;;;;;;;;23.10;46.40;;;;;;474643;251;1299;-53
2022/10/25 03:18:59;;;;;;;;;;;23.10;46.50;;;;;;474660;251;1314;-53
2022/10/25 03:21:00;;;;;;;;;;;23.10;46.40;;;;;;474661;251;1239;-53
2022/10/25 03:23:01;;;;;;;;;;;23.10;46.50;;;;;;475053;251;1195;-53
2022/10/25 03:25:03;;;;;;;;;;;23.00;46.40;;;;;;474987;251;1191;-53
2022/10/25 03:27:04;;;;;;;;;;;23.00;46.40;;;;;;474811;251;1262;-53
2022/10/25 03:29:05;;;;;;;;;;;23.10;46.50;;;;;;474942;251;1197;-53
2022/10/25 03:31:07;;;;;;;;;;;23.10;46.50;;;;;;475074;251;1186;-53
2022/10/25 03:33:08;;;;;;;;;;;23.10;46.50;;;;;;474897;251;2149;-53
2022/10/25 03:35:09;;;;;;;;;;;23.00;46.50;;;;;;474659;251;1196;-53
2022/10/25 03:37:11;;;;;;;;;;;23.00;46.50;;;;;;474760;251;1732;-53
2022/10/25 03:39:12;;;;;;;;;;;23.00;46.50;;;;;;474777;251;1229;-53
2022/10/25 03:41:13;;;;;;;;;;;23.00;46.50;;;;;;475079;251;1583;-53
2022/10/25 03:43:15;;;;;;;;;;;23.00;46.50;;;;;;474615;251;1225;-53
2022/10/25 03:45:16;;;;;;;;;;;23.00;46.60;;;;;;475064;251;1198;-53
2022/10/25 03:47:17;;;;;;;;;;;23.10;46.60;;;;;;475059;251;1195;-53
2022/10/25 03:49:19;;;;;;;;;;;23.10;46.50;;;;;;475059;251;1220;-53
2022/10/25 03:51:20;;;;;;;;;;;23.00;46.50;;;;;;474968;251;1757;-53
2022/10/25 03:53:21;;;;;;;;;;;23.10;46.50;;;;;;474648;251;2169;-53
2022/10/25 03:55:22;;;;;;;;;;;23.00;46.50;;;;;;475060;251;1243;-53
2022/10/25 03:57:24;;;;;;;;;;;23.00;46.50;;;;;;474720;251;1259;-53
2022/10/25 03:59:25;;;;;;;;;;;23.00;46.50;;;;;;474730;251;1225;-53
2022/10/25 04:01:26;;;;;;;;;;;23.00;46.50;;;;;;474894;251;1332;-53
2022/10/25 04:03:28;;;;;;;;;;;23.10;46.60;;;;;;475052;251;1287;-53
2022/10/25 04:05:29;;;;;;;;;;;23.10;46.50;;;;;;475065;251;1247;-52
2022/10/25 04:07:30;;;;;;;;;;;23.10;46.60;;;;;;474587;251;1262;-53
2022/10/25 04:09:32;;;;;;;;;;;23.00;46.50;;;;;;475013;251;1300;-53
2022/10/25 04:11:33;;;;;;;;;;;23.10;46.60;;;;;;475040;251;1252;-53
2022/10/25 04:13:34;;;;;;;;;;;23.10;46.60;;;;;;474744;251;2204;-52
2022/10/25 04:15:36;;;;;;;;;;;23.10;46.60;;;;;;474930;251;1280;-53
2022/10/25 04:17:37;;;;;;;;;;;23.10;46.60;;;;;;475030;251;1402;-53
2022/10/25 04:19:38;;;;;;;;;;;23.00;46.60;;;;;;474795;251;1724;-53
2022/10/25 04:21:40;;;;;;;;;;;23.10;46.60;;;;;;474579;251;1223;-53
2022/10/25 04:23:41;;;;;;;;;;;23.10;46.60;;;;;;474865;251;1796;-53
2022/10/25 04:25:42;;;;;;;;;;;23.00;46.60;;;;;;474608;251;1246;-53
2022/10/25 04:27:44;;;;;;;;;;;23.10;46.60;;;;;;474604;251;1461;-53
2022/10/25 04:29:45;;;;;;;;;;;23.00;46.60;;;;;;475023;251;1192;-52
2022/10/25 04:31:46;;;;;;;;;;;23.10;46.60;;;;;;474474;251;1197;-53
2022/10/25 04:33:47;;;;;;;;;;;23.00;46.60;;;;;;474815;251;2180;-53
2022/10/25 04:35:49;;;;;;;;;;;23.10;46.60;;;;;;474605;251;1254;-53
2022/10/25 04:37:51;;;;;;;;;;;23.10;46.60;;;;;;474468;251;1298;-53
2022/10/25 04:39:52;;;;;;;;;;;23.10;46.60;;;;;;474634;251;1702;-54
2022/10/25 04:41:54;;;;;;;;;;;23.10;46.60;;;;;;474775;251;1405;-52
2022/10/25 04:43:55;;;;;;;;;;;23.10;46.60;;;;;;474433;251;1346;-53
2022/10/25 04:45:56;;;;;;;;;;;23.10;46.60;;;;;;474801;251;1230;-52
2022/10/25 04:47:57;;;;;;;;;;;23.00;46.60;;;;;;474875;251;1388;-53
2022/10/25 04:49:59;;;;;;;;;;;23.00;46.60;;;;;;474766;251;1382;-53
2022/10/25 04:52:00;;;;;;;;;;;23.00;46.60;;;;;;474625;251;1361;-53
2022/10/25 04:54:01;;;;;;;;;;;23.10;46.60;;;;;;474429;251;2206;-53
2022/10/25 04:56:03;;;;;;;;;;;23.10;46.60;;;;;;474504;251;1249;-53
2022/10/25 04:58:04;;;;;;;;;;;23.10;46.50;;;;;;474697;251;1215;-53
2022/10/25 05:00:05;;;;;;;;;;;23.10;46.60;;;;;;474535;251;1202;-53
2022/10/25 05:02:07;;;;;;;;;;;23.00;46.50;;;;;;474601;251;1159;-53
2022/10/25 05:04:08;;;;;;;;;;;23.10;46.60;;;;;;474554;251;1293;-52
2022/10/25 05:06:09;;;;;;;;;;;23.10;46.60;;;;;;474913;251;1273;-53
2022/10/25 05:08:11;;;;;;;;;;;23.10;46.60;;;;;;474583;251;1216;-53
2022/10/25 05:10:12;;;;;;;;;;;23.10;46.60;;;;;;474669;251;1245;-53
2022/10/25 05:12:13;;;;;;;;;;;23.10;46.60;;;;;;474790;251;1170;-53
2022/10/25 05:14:15;;;;;;;;;;;23.10;46.60;;;;;;474528;251;2196;-53
2022/10/25 05:16:19;;;;;;;;;;;23.10;46.60;;;;;;474805;251;1235;-53
2022/10/25 05:18:18;;;;;;;;;;;23.10;46.60;;;;;;474610;251;1452;-53
2022/10/25 05:20:19;;;;;;;;;;;23.00;46.60;;;;;;474701;251;1282;-53
2022/10/25 05:22:20;;;;;;;;;;;23.10;46.70;;;;;;474596;251;1269;-53
2022/10/25 05:24:21;;;;;;;;;;;23.10;46.60;;;;;;474478;251;1339;-53
2022/10/25 05:26:23;;;;;;;;;;;23.00;46.60;;;;;;474594;251;1294;-53
2022/10/25 05:28:24;;;;;;;;;;;23.10;46.70;;;;;;474974;251;1251;-53
2022/10/25 05:30:25;;;;;;;;;;;23.00;46.60;;;;;;474566;251;1333;-53
2022/10/25 05:32:27;;;;;;;;;;;23.10;46.60;;;;;;474463;251;1310;-53
2022/10/25 05:34:28;;;;;;;;;;;23.10;46.60;;;;;;474503;251;2173;-53
2022/10/25 05:36:32;;;;;;;;;;;23.10;46.70;;;;;;474655;251;1204;-53
2022/10/25 05:38:31;;;;;;;;;;;23.10;46.60;;;;;;474513;251;2267;-53
2022/10/25 05:40:32;;;;;;;;;;;23.10;46.60;;;;;;474805;251;1298;-53
2022/10/25 05:42:34;;;;;;;;;;;23.10;46.60;;;;;;474635;251;1205;-53
2022/10/25 05:44:35;;;;;;;;;;;23.10;46.60;;;;;;474699;251;1249;-52
2022/10/25 05:46:36;;;;;;;;;;;23.10;46.60;;;;;;474564;251;1529;-53
2022/10/25 05:48:38;;;;;;;;;;;23.10;46.70;;;;;;474668;251;1264;-53
2022/10/25 05:50:39;;;;;;;;;;;23.10;46.70;;;;;;474581;251;1221;-53
2022/10/25 05:52:40;;;;;;;;;;;23.00;46.70;;;;;;474463;251;1397;-53
2022/10/25 05:54:42;;;;;;;;;;;23.00;46.70;;;;;;474701;251;2173;-53
2022/10/25 05:56:43;;;;;;;;;;;23.10;46.70;;;;;;474326;251;1233;-53
2022/10/25 05:58:44;;;;;;;;;;;23.00;46.70;;;;;;474479;251;1317;-53
2022/10/25 06:00:46;;;;;;;;;;;23.00;46.70;;;;;;474357;251;1338;-53
2022/10/25 06:02:47;;;;;;;;;;;23.00;46.70;;;;;;474455;251;1242;-52
2022/10/25 06:04:49;;;;;;;;;;;23.10;46.70;;;;;;474668;251;1284;-53
2022/10/25 06:06:51;;;;;;;;;;;23.10;46.70;;;;;;474027;251;1298;-52
2022/10/25 06:08:52;;;;;;;;;;;23.00;46.70;;;;;;474395;251;1228;-53
2022/10/25 06:10:53;;;;;;;;;;;23.00;46.70;;;;;;474442;251;1346;-53
2022/10/25 06:12:54;;;;;;;;;;;23.10;46.80;;;;;;474493;251;1475;-53
2022/10/25 06:14:56;;;;;;;;;;;23.10;46.80;;;;;;474531;251;2193;-53
2022/10/25 06:16:57;;;;;;;;;;;23.00;46.80;;;;;;474549;251;1129;-53
2022/10/25 06:18:58;;;;;;;;;;;23.00;46.80;;;;;;474548;251;1244;-53
2022/10/25 06:20:59;;;;;;;;;;;23.00;46.70;;;;;;474505;251;1196;-53
2022/10/25 06:23:01;;;;;;;;;;;23.10;46.70;;;;;;474056;251;1228;-53
2022/10/25 06:25:02;;;;;;;;;;;23.10;46.70;;;;;;474047;251;1186;-53
2022/10/25 06:27:04;;;;;;;;;;;23.00;46.70;;;;;;474137;251;1190;-53
2022/10/25 06:29:05;;;;;;;;;;;23.10;46.70;;;;;;474208;251;1234;-52
2022/10/25 06:31:06;;;;;;;;;;;23.10;46.70;;;;;;474037;251;1253;-53
2022/10/25 06:33:08;;;;;;;;;;;23.10;46.70;;;;;;474162;251;1196;-53
2022/10/25 06:35:09;;;;;;;;;;;23.10;46.70;;;;;;474002;251;1238;-53
2022/10/25 06:37:11;;;;;;;;;;;23.10;46.70;;;;;;473950;251;1236;-53
2022/10/25 06:39:12;;;;;;;;;;;23.10;46.70;;;;;;474097;251;1557;-53
2022/10/25 06:41:13;;;;;;;;;;;23.10;46.70;;;;;;474063;251;1181;-53
2022/10/25 06:43:15;;;;;;;;;;;23.10;46.80;;;;;;474116;251;1232;-53
2022/10/25 06:45:16;;;;;;;;;;;23.10;46.80;;;;;;474089;251;1267;-53
2022/10/25 06:47:17;;;;;;;;;;;23.10;46.80;;;;;;474232;251;1136;-53
2022/10/25 06:49:19;;;;;;;;;;;23.10;46.80;;;;;;474035;251;1208;-53
2022/10/25 06:51:20;;;;;;;;;;;23.10;46.80;;;;;;474086;251;1409;-52
2022/10/25 06:53:21;;;;;;;;;;;23.10;46.70;;;;;;473919;251;2209;-53
2022/10/25 06:55:23;;;;;;;;;;;23.10;46.70;;;;;;474106;251;1248;-53
2022/10/25 06:57:24;;;;;;;;;;;23.10;46.80;;;;;;473961;251;1282;-52
2022/10/25 06:59:25;;;;;;;;;;;23.10;46.70;;;;;;473814;251;1279;-53
2022/10/25 07:01:27;;;;;;;;;;;23.10;46.70;;;;;;473745;251;1300;-53
2022/10/25 07:03:33;;;;;;;;;;;23.10;46.80;;;;;;473634;251;1275;-53
2022/10/25 07:05:31;;;;;;;;;;;23.10;46.80;;;;;;473706;251;2047;-52
2022/10/25 07:07:32;;;;;;;;;;;23.10;46.80;;;;;;473977;251;1246;-53
2022/10/25 07:09:33;;;;;;;;;;;23.10;46.80;;;;;;474240;251;1224;-53
2022/10/25 07:11:35;;;;;;;;;;;23.10;46.80;;;;;;474601;251;1209;-52
2022/10/25 07:13:36;;;;;;;;;;;23.10;46.80;;;;;;473883;251;2150;-52
2022/10/25 07:15:39;;;;;;;;;;;23.10;46.80;;;;;;473765;251;1520;-53
2022/10/25 07:17:39;;;;;;;;;;;23.10;46.70;;;;;;473879;251;1587;-53
2022/10/25 07:19:40;;;;;;;;;;;23.10;46.80;;;;;;473850;251;1243;-53
2022/10/25 07:21:42;;;;;;;;;;;23.10;46.80;;;;;;473872;251;1314;-53
2022/10/25 07:23:43;;;;;;;;;;;23.10;46.90;;;;;;474682;251;1145;-53
2022/10/25 07:25:44;;;;;;;;;;;23.10;46.90;;;;;;473788;251;1562;-53
2022/10/25 07:27:46;;;;;;;;;;;23.10;46.80;;;;;;473993;251;1230;-53
2022/10/25 07:29:47;;;;;;;;;;;23.10;46.90;;;;;;474697;251;1133;-53
2022/10/25 07:31:48;;;;;;;;;;;23.10;46.80;;;;;;474069;251;1239;-53
2022/10/25 07:33:49;;;;;;;;;;;23.10;46.80;;;;;;473881;251;2205;-53
2022/10/25 07:35:51;;;;;;;;;;;23.10;46.90;;;;;;473836;251;1267;-53
2022/10/25 07:37:52;;;;;;;;;;;23.10;46.90;;;;;;474273;251;1240;-53
2022/10/25 07:39:53;;;;;;;;;;;23.10;46.90;;;;;;474746;251;1052;-52
2022/10/25 07:41:55;;;;;;;;;;;23.10;46.90;;;;;;474040;251;1212;-52
2022/10/25 07:43:56;;;;;;;;;;;23.10;46.90;;;;;;474765;251;1107;-53
2022/10/25 07:45:57;;;;;;;;;;;23.10;46.90;;;;;;474438;251;1185;-53
2022/10/25 07:47:59;;;;;;;;;;;23.10;46.90;;;;;;473975;251;1356;-53
2022/10/25 07:50:00;;;;;;;;;;;23.10;46.90;;;;;;474043;251;1251;-52
2022/10/25 07:52:01;;;;;;;;;;;23.10;46.90;;;;;;473974;251;1216;-53
2022/10/25 07:54:03;;;;;;;;;;;23.10;46.90;;;;;;474100;251;2214;-53
2022/10/25 07:56:04;;;;;;;;;;;23.10;46.90;;;;;;473965;251;1219;-53
2022/10/25 07:58:06;;;;;;;;;;;23.10;46.90;;;;;;473916;251;1328;-53
2022/10/25 08:00:07;;;;;;;;;;;23.10;46.90;;;;;;474172;251;1258;-53
2022/10/25 08:02:08;;;;;;;;;;;23.10;47.00;;;;;;474201;251;1195;-53
2022/10/25 08:04:10;;;;;;;;;;;23.10;47.00;;;;;;474496;251;1263;-53
2022/10/25 08:06:11;;;;;;;;;;;23.10;47.00;;;;;;474054;251;1371;-53
2022/10/25 08:08:12;;;;;;;;;;;23.10;47.00;;;;;;474697;251;1098;-53
2022/10/25 08:10:14;;;;;;;;;;;23.10;47.00;;;;;;474638;251;1207;-53
2022/10/25 08:12:15;;;;;;;;;;;23.10;47.00;;;;;;473942;251;1375;-53
2022/10/25 08:14:16;;;;;;;;;;;23.10;47.00;;;;;;474060;251;2217;-53
2022/10/25 08:16:18;;;;;;;;;;;23.10;47.00;;;;;;474445;251;1212;-52
2022/10/25 08:18:19;;;;;;;;;;;23.10;46.90;;;;;;473797;251;1278;-53
2022/10/25 08:20:20;;;;;;;;;;;23.10;47.00;;;;;;473835;251;1245;-52
2022/10/25 08:22:22;;;;;;;;;;;23.10;47.00;;;;;;473927;251;1516;-53
2022/10/25 08:24:23;;;;;;;;;;;23.10;47.10;;;;;;473817;251;1214;-53
2022/10/25 08:26:25;;;;;;;;;;;23.10;47.00;;;;;;474199;251;1259;-53
2022/10/25 08:28:26;;;;;;;;;;;23.10;47.00;;;;;;474218;251;2217;-52
2022/10/25 08:30:27;;;;;;;;;;;23.10;47.10;;;;;;473763;251;1238;-52
2022/10/25 08:32:30;;;;;;;;;;;23.10;47.10;;;;;;473864;251;1395;-52
2022/10/25 08:34:30;;;;;;;;;;;23.10;47.10;;;;;;473831;251;2205;-53
2022/10/25 08:36:31;;;;;;;;;;;23.10;47.10;;;;;;473839;251;1387;-52
2022/10/25 08:38:33;;;;;;;;;;;23.10;47.10;;;;;;473970;251;1279;-53
2022/10/25 08:40:34;;;;;;;;;;;23.10;47.10;;;;;;473970;251;1310;-53
2022/10/25 08:42:35;;;;;;;;;;;23.10;47.10;;;;;;474084;251;1304;-53
2022/10/25 08:44:36;;;;;;;;;;;23.10;47.10;;;;;;473925;251;1240;-53
2022/10/25 08:46:38;;;;;;;;;;;23.10;47.10;;;;;;473861;251;1306;-52
2022/10/25 08:48:39;;;;;;;;;;;23.10;47.10;;;;;;474068;250;1225;-52
2022/10/25 08:50:41;;;;;;;;;;;23.10;47.10;;;;;;474043;251;1324;-53
2022/10/25 08:52:42;;;;;;;;;;;23.10;47.10;;;;;;474134;251;1266;-53
2022/10/25 08:54:43;;;;;;;;;;;23.10;47.10;;;;;;474065;251;2193;-53
2022/10/25 08:56:45;;;;;;;;;;;23.10;46.90;;;;;;474083;251;1216;-53
2022/10/25 08:58:46;;;;;;;;;;;23.10;46.80;;;;;;474117;251;1249;-52
2022/10/25 09:00:48;;;;;;;;;;;23.20;46.80;;;;;;474128;251;1377;-53
2022/10/25 09:02:49;;;;;;;;;;;23.10;46.50;;;;;;474068;251;1230;-53
2022/10/25 09:04:50;;;;;;;;;;;23.20;46.50;;;;;;474010;251;1309;-53
2022/10/25 09:06:51;;;;;;;;;;;23.20;46.40;;;;;;473774;251;2255;-53
2022/10/25 09:08:53;;;;;;;;;;;23.20;46.30;;;;;;474209;251;1203;-52
2022/10/25 09:10:54;;;;;;;;;;;23.20;46.20;;;;;;474053;251;1283;-52
2022/10/25 09:12:55;;;;;;;;;;;23.20;46.20;;;;;;474127;251;1226;-52
2022/10/25 09:14:58;;;;;;;;;;;23.20;46.20;;;;;;474329;251;2188;-52
2022/10/25 09:16:59;;;;;;;;;;;23.20;46.10;;;;;;473958;251;2159;-52
2022/10/25 09:19:00;;;;;;;;;;;23.30;46.00;;;;;;473972;251;1281;-51
2022/10/25 09:21:01;;;;;;;;;;;23.30;45.90;;;;;;474032;251;1275;-52
2022/10/25 09:23:03;;;;;;;;;;;23.30;45.80;;;;;;474056;251;1343;-52
2022/10/25 09:25:04;;;;;;;;;;;23.30;45.70;;;;;;473845;251;1538;-52
2022/10/25 09:27:05;;;;;;;;;;;23.30;45.60;;;;;;474077;251;1141;-53
2022/10/25 09:29:07;;;;;;;;;;;23.40;45.70;;;;;;474729;251;1169;-53
2022/10/25 09:31:08;;;;;;;;;;;23.40;45.50;;;;;;474236;251;1175;-53
2022/10/25 09:33:09;;;;;;;;;;;23.40;45.40;;;;;;473951;251;1270;-53
2022/10/25 09:35:11;;;;;;;;;;;23.30;45.40;;;;;;473968;251;2146;-53
2022/10/25 09:37:12;;;;;;;;;;;23.30;45.40;;;;;;473952;251;1202;-53
2022/10/25 09:39:13;;;;;;;;;;;23.30;45.40;;;;;;474055;251;1276;-53
2022/10/25 09:41:15;;;;;;;;;;;23.30;45.30;;;;;;474142;251;1182;-53
2022/10/25 09:43:17;;;;;;;;;;;23.40;45.20;;;;;;473823;251;1316;-53
2022/10/25 09:45:17;;;;;;;;;;;23.40;45.20;;;;;;473949;251;2196;-52
2022/10/25 09:47:19;;;;;;;;;;;23.40;45.20;;;;;;474161;251;1235;-53
2022/10/25 09:49:20;;;;;;;;;;;23.40;45.10;;;;;;474200;251;1282;-52
2022/10/25 09:51:21;;;;;;;;;;;23.30;45.10;;;;;;474074;251;1285;-53
2022/10/25 09:53:23;;;;;;;;;;;23.40;45.10;;;;;;474089;251;1505;-52
2022/10/25 09:55:24;;;;;;;;;;;23.30;45.00;;;;;;474195;251;2161;-52
2022/10/25 09:57:25;;;;;;;;;;;23.30;45.00;;;;;;474281;251;1362;-53
2022/10/25 09:59:27;;;;;;;;;;;23.40;45.00;;;;;;474117;251;1265;-52
2022/10/25 10:01:28;;;;;;;;;;;23.40;44.90;;;;;;473909;251;1342;-52
2022/10/25 10:03:30;;;;;;;;;;;23.40;44.90;;;;;;473906;251;1259;-52
2022/10/25 10:05:31;;;;;;;;;;;23.40;44.80;;;;;;473929;251;1372;-52
2022/10/25 10:07:32;;;;;;;;;;;23.50;44.80;;;;;;473952;251;1219;-52
2022/10/25 10:09:34;;;;;;;;;;;23.50;44.60;;;;;;473914;251;1381;-53
2022/10/25 10:11:35;;;;;;;;;;;23.50;44.70;;;;;;474254;251;1176;-53
2022/10/25 10:13:36;;;;;;;;;;;23.40;44.60;;;;;;473964;251;1242;-53
2022/10/25 10:15:40;;;;;;;;;;;23.50;44.60;;;;;;474340;251;2224;-53
2022/10/25 10:17:39;;;;;;;;;;;23.50;44.60;;;;;;474129;251;2132;-53
2022/10/25 10:19:42;;;;;;;;;;;23.50;44.50;;;;;;474018;251;1309;-53
2022/10/25 10:21:42;;;;;;;;;;;23.40;44.40;;;;;;474000;251;2047;-53
2022/10/25 10:23:43;;;;;;;;;;;23.50;44.40;;;;;;474109;251;1353;-52
2022/10/25 10:25:45;;;;;;;;;;;23.50;44.40;;;;;;473839;251;1227;-52
2022/10/25 10:27:46;;;;;;;;;;;23.50;44.40;;;;;;473886;251;1240;-53
2022/10/25 10:29:47;;;;;;;;;;;23.50;44.40;;;;;;474043;251;1249;-53
2022/10/25 10:31:48;;;;;;;;;;;23.50;44.30;;;;;;474164;251;1287;-52
2022/10/25 10:33:50;;;;;;;;;;;23.40;44.20;;;;;;474232;251;1208;-53
2022/10/25 10:35:51;;;;;;;;;;;23.50;44.20;;;;;;473887;251;2201;-53
2022/10/25 10:37:52;;;;;;;;;;;23.50;44.30;;;;;;473950;251;1576;-53
2022/10/25 10:39:54;;;;;;;;;;;23.40;44.10;;;;;;473877;251;1277;-53
2022/10/25 10:41:59;;;;;;;;;;;23.40;44.10;;;;;;473873;251;1253;-53
2022/10/25 10:43:57;;;;;;;;;;;23.40;44.10;;;;;;473730;251;1495;-53
2022/10/25 10:45:58;;;;;;;;;;;23.50;44.10;;;;;;473915;251;1248;-53
2022/10/25 10:48:00;;;;;;;;;;;23.40;44.10;;;;;;473982;251;1330;-53
2022/10/25 10:50:01;;;;;;;;;;;23.40;44.00;;;;;;474145;251;1215;-53
2022/10/25 10:52:02;;;;;;;;;;;23.40;44.00;;;;;;473970;251;1290;-53
2022/10/25 10:54:03;;;;;;;;;;;23.40;44.00;;;;;;473949;251;1560;-53
2022/10/25 10:56:05;;;;;;;;;;;23.40;44.00;;;;;;473989;251;2212;-53
2022/10/25 10:58:06;;;;;;;;;;;23.50;43.90;;;;;;473957;251;1182;-53
2022/10/25 11:00:07;;;;;;;;;;;23.40;43.90;;;;;;473739;251;1320;-53
2022/10/25 11:02:09;;;;;;;;;;;23.40;43.90;;;;;;473981;251;1302;-53
2022/10/25 11:04:10;;;;;;;;;;;23.40;43.90;;;;;;473853;251;1360;-53
2022/10/25 11:06:12;;;;;;;;;;;23.40;43.80;;;;;;474207;251;1176;-53
2022/10/25 11:08:13;;;;;;;;;;;23.50;43.80;;;;;;474230;251;2006;-53
2022/10/25 11:10:15;;;;;;;;;;;23.40;43.70;;;;;;474203;251;1649;-53
2022/10/25 11:12:17;;;;;;;;;;;23.40;43.70;;;;;;474212;251;1209;-52
2022/10/25 11:14:20;;;;;;;;;;;23.40;43.70;;;;;;474238;251;2510;-53
2022/10/25 11:16:20;;;;;;;;;;;23.40;43.60;;;;;;473945;251;2188;-53
2022/10/25 11:18:21;;;;;;;;;;;23.40;43.70;;;;;;473938;251;1369;-52
2022/10/25 11:20:23;;;;;;;;;;;23.40;43.70;;;;;;473976;251;1403;-53
2022/10/25 11:22:24;;;;;;;;;;;23.40;43.70;;;;;;474690;251;1271;-53
2022/10/25 11:24:26;;;;;;;;;;;23.40;43.60;;;;;;474455;251;1267;-53
2022/10/25 11:26:27;;;;;;;;;;;23.40;43.60;;;;;;474005;251;1542;-52
2022/10/25 11:28:28;;;;;;;;;;;23.40;43.60;;;;;;473919;251;1276;-53
2022/10/25 11:30:30;;;;;;;;;;;23.40;43.60;;;;;;473692;251;1218;-53
2022/10/25 11:32:31;;;;;;;;;;;23.40;43.60;;;;;;473943;251;1240;-52
2022/10/25 11:34:32;;;;;;;;;;;23.40;43.50;;;;;;474037;251;1876;-53
2022/10/25 11:36:34;;;;;;;;;;;23.40;43.50;;;;;;473866;251;2386;-53
2022/10/25 11:38:35;;;;;;;;;;;23.40;43.50;;;;;;474091;251;1289;-53
2022/10/25 11:40:36;;;;;;;;;;;23.40;43.50;;;;;;474646;251;1159;-53
2022/10/25 11:42:38;;;;;;;;;;;23.40;43.50;;;;;;474495;251;1186;-53
2022/10/25 11:44:39;;;;;;;;;;;23.40;43.40;;;;;;473840;251;1514;-53
2022/10/25 11:46:40;;;;;;;;;;;23.40;43.40;;;;;;473959;251;1364;-52
2022/10/25 11:48:41;;;;;;;;;;;23.40;43.40;;;;;;474034;251;1225;-53
2022/10/25 11:50:43;;;;;;;;;;;23.40;43.40;;;;;;473919;251;1235;-53
2022/10/25 11:52:44;;;;;;;;;;;23.40;43.20;;;;;;473962;251;1189;-52
2022/10/25 11:54:45;;;;;;;;;;;23.40;43.30;;;;;;473971;251;1207;-52
2022/10/25 11:56:47;;;;;;;;;;;23.40;43.30;;;;;;474005;251;2201;-52